Terminal Aerodrome Forecast
Issued by NWS Charleston, WV

Current Version | Previous Version | Text Only | Print | Product List | Glossary Off
Versions: 1 2 3 4 5 6 7 8 9 10 11 12 13 14 15 16 17 18 19

627
FTUS41 KRLX 022332
TAFPKB
TAF
KPKB 022332Z 0300/0324 15012G22KT P6SM BKN130
     FM030700 16013G24KT 3SM SHRA OVC025
     FM031000 17013G27KT 5SM -SHRA VCTS OVC017CB
     FM031300 20013G19KT P6SM OVC017
     FM031600 21012G18KT P6SM BKN030=

USA.gov is the U.S. government's official web portal to all federal, state and local government web resources and services.